sensor_id;sensor_type;location;lat;lon;timestamp;P1;durP1;ratioP1;P2;durP2;ratioP2
2810;SDS011;1413;52.440;13.506;2023-02-26T13:28:00;13.85;;;2.03;;
2810;SDS011;1413;52.440;13.506;2023-02-26T13:30:30;7.45;;;2.08;;
2810;SDS011;1413;52.440;13.506;2023-02-26T13:32:59;8.07;;;1.80;;
2810;SDS011;1413;52.440;13.506;2023-02-26T13:35:28;7.00;;;1.63;;
2810;SDS011;1413;52.440;13.506;2023-02-26T13:40:33;5.95;;;1.50;;
2810;SDS011;1413;52.440;13.506;2023-02-26T13:43:05;5.80;;;1.52;;
2810;SDS011;1413;52.440;13.506;2023-02-26T13:45:38;7.53;;;1.80;;
2810;SDS011;1413;52.440;13.506;2023-02-26T13:48:14;9.98;;;1.50;;
2810;SDS011;1413;52.440;13.506;2023-02-26T13:50:46;8.10;;;1.40;;
2810;SDS011;1413;52.440;13.506;2023-02-26T13:53:35;8.95;;;1.52;;
2810;SDS011;1413;52.440;13.506;2023-02-26T13:56:12;12.10;;;1.63;;
2810;SDS011;1413;52.440;13.506;2023-02-26T13:58:41;4.78;;;1.40;;
2810;SDS011;1413;52.440;13.506;2023-02-26T14:01:13;5.88;;;1.60;;
2810;SDS011;1413;52.440;13.506;2023-02-26T14:03:44;8.75;;;1.73;;
2810;SDS011;1413;52.440;13.506;2023-02-26T14:06:22;8.02;;;1.70;;
2810;SDS011;1413;52.440;13.506;2023-02-26T14:08:51;7.70;;;1.35;;
2810;SDS011;1413;52.440;13.506;2023-02-26T14:11:24;5.85;;;1.88;;
2810;SDS011;1413;52.440;13.506;2023-02-26T14:16:42;4.53;;;1.23;;
2810;SDS011;1413;52.440;13.506;2023-02-26T14:19:18;4.90;;;1.42;;
2810;SDS011;1413;52.440;13.506;2023-02-26T14:21:47;5.32;;;1.55;;
2810;SDS011;1413;52.440;13.506;2023-02-26T14:24:16;7.03;;;1.40;;
2810;SDS011;1413;52.440;13.506;2023-02-26T14:26:49;6.15;;;1.50;;
2810;SDS011;1413;52.440;13.506;2023-02-26T14:29:21;4.68;;;1.08;;
2810;SDS011;1413;52.440;13.506;2023-02-26T14:31:53;6.20;;;1.15;;
2810;SDS011;1413;52.440;13.506;2023-02-26T14:34:22;5.78;;;1.02;;
2810;SDS011;1413;52.440;13.506;2023-02-26T14:36:51;6.50;;;1.30;;
2810;SDS011;1413;52.440;13.506;2023-02-26T14:39:24;4.97;;;1.27;;
2810;SDS011;1413;52.440;13.506;2023-02-26T14:41:55;4.55;;;1.00;;
2810;SDS011;1413;52.440;13.506;2023-02-26T14:44:24;6.57;;;1.65;;
2810;SDS011;1413;52.440;13.506;2023-02-26T14:46:54;6.28;;;1.25;;
2810;SDS011;1413;52.440;13.506;2023-02-26T14:49:24;4.47;;;1.10;;
2810;SDS011;1413;52.440;13.506;2023-02-26T14:51:58;4.85;;;1.40;;
2810;SDS011;1413;52.440;13.506;2023-02-26T14:54:31;5.22;;;1.20;;
2810;SDS011;1413;52.440;13.506;2023-02-26T14:57:02;6.18;;;1.20;;
2810;SDS011;1413;52.440;13.506;2023-02-26T14:59:43;4.75;;;1.08;;
2810;SDS011;1413;52.440;13.506;2023-02-26T15:02:26;5.55;;;1.30;;
2810;SDS011;1413;52.440;13.506;2023-02-26T15:05:03;5.10;;;1.02;;
2810;SDS011;1413;52.440;13.506;2023-02-26T15:07:39;4.78;;;1.20;;
2810;SDS011;1413;52.440;13.506;2023-02-26T15:10:12;5.03;;;1.10;;
2810;SDS011;1413;52.440;13.506;2023-02-26T15:12:45;5.85;;;1.15;;
2810;SDS011;1413;52.440;13.506;2023-02-26T15:15:18;4.13;;;1.08;;
2810;SDS011;1413;52.440;13.506;2023-02-26T15:17:54;4.50;;;1.17;;
2810;SDS011;1413;52.440;13.506;2023-02-26T15:20:26;4.93;;;1.10;;
2810;SDS011;1413;52.440;13.506;2023-02-26T15:23:03;3.90;;;1.05;;
2810;SDS011;1413;52.440;13.506;2023-02-26T15:25:32;3.83;;;1.08;;
2810;SDS011;1413;52.440;13.506;2023-02-26T15:28:01;4.05;;;0.95;;
2810;SDS011;1413;52.440;13.506;2023-02-26T15:30:29;3.13;;;0.80;;
2810;SDS011;1413;52.440;13.506;2023-02-26T15:32:59;3.85;;;0.95;;
2810;SDS011;1413;52.440;13.506;2023-02-26T15:35:29;3.90;;;0.90;;
2810;SDS011;1413;52.440;13.506;2023-02-26T15:37:59;4.55;;;1.35;;
2810;SDS011;1413;52.440;13.506;2023-02-26T15:40:28;3.28;;;0.85;;
2810;SDS011;1413;52.440;13.506;2023-02-26T15:42:56;4.07;;;0.90;;
2810;SDS011;1413;52.440;13.506;2023-02-26T15:45:25;4.00;;;1.02;;
2810;SDS011;1413;52.440;13.506;2023-02-26T15:47:54;3.97;;;1.00;;
2810;SDS011;1413;52.440;13.506;2023-02-26T15:50:25;4.35;;;1.30;;
2810;SDS011;1413;52.440;13.506;2023-02-26T15:52:54;5.82;;;1.10;;
2810;SDS011;1413;52.440;13.506;2023-02-26T15:55:22;7.55;;;1.30;;
2810;SDS011;1413;52.440;13.506;2023-02-26T15:57:50;7.68;;;1.13;;
2810;SDS011;1413;52.440;13.506;2023-02-26T16:00:19;3.40;;;0.88;;
2810;SDS011;1413;52.440;13.506;2023-02-26T16:02:50;6.28;;;1.10;;
2810;SDS011;1413;52.440;13.506;2023-02-26T16:05:18;6.70;;;1.20;;
2810;SDS011;1413;52.440;13.506;2023-02-26T16:07:47;5.30;;;0.90;;
2810;SDS011;1413;52.440;13.506;2023-02-26T16:10:16;5.47;;;1.10;;
2810;SDS011;1413;52.440;13.506;2023-02-26T16:12:46;12.95;;;1.80;;
2810;SDS011;1413;52.440;13.506;2023-02-26T16:15:17;16.50;;;1.73;;
2810;SDS011;1413;52.440;13.506;2023-02-26T16:17:48;12.05;;;1.25;;
2810;SDS011;1413;52.440;13.506;2023-02-26T16:20:19;8.25;;;1.40;;
2810;SDS011;1413;52.440;13.506;2023-02-26T16:22:49;15.48;;;1.80;;
2810;SDS011;1413;52.440;13.506;2023-02-26T16:25:17;18.27;;;1.52;;
2810;SDS011;1413;52.440;13.506;2023-02-26T16:27:47;12.02;;;1.55;;
2810;SDS011;1413;52.440;13.506;2023-02-26T16:30:16;9.55;;;1.50;;
2810;SDS011;1413;52.440;13.506;2023-02-26T16:32:44;8.00;;;1.05;;
2810;SDS011;1413;52.440;13.506;2023-02-26T16:35:15;8.20;;;1.27;;
2810;SDS011;1413;52.440;13.506;2023-02-26T16:37:43;10.38;;;1.20;;
2810;SDS011;1413;52.440;13.506;2023-02-26T16:40:17;6.75;;;1.17;;
2810;SDS011;1413;52.440;13.506;2023-02-26T16:42:50;7.32;;;0.98;;
2810;SDS011;1413;52.440;13.506;2023-02-26T16:45:19;7.35;;;1.42;;
2810;SDS011;1413;52.440;13.506;2023-02-26T16:47:49;6.28;;;1.27;;
2810;SDS011;1413;52.440;13.506;2023-02-26T16:50:18;10.73;;;1.40;;
2810;SDS011;1413;52.440;13.506;2023-02-26T16:52:46;5.53;;;0.98;;
2810;SDS011;1413;52.440;13.506;2023-02-26T16:55:14;9.02;;;1.20;;
2810;SDS011;1413;52.440;13.506;2023-02-26T16:57:45;4.30;;;1.17;;
2810;SDS011;1413;52.440;13.506;2023-02-26T17:00:14;4.30;;;0.88;;
2810;SDS011;1413;52.440;13.506;2023-02-26T17:02:45;11.07;;;1.27;;
2810;SDS011;1413;52.440;13.506;2023-02-26T17:05:16;7.93;;;1.50;;
2810;SDS011;1413;52.440;13.506;2023-02-26T17:07:48;4.90;;;1.00;;
2810;SDS011;1413;52.440;13.506;2023-02-26T17:10:22;5.18;;;1.10;;
2810;SDS011;1413;52.440;13.506;2023-02-26T17:12:52;5.82;;;1.20;;
2810;SDS011;1413;52.440;13.506;2023-02-26T17:15:20;8.63;;;1.40;;
2810;SDS011;1413;52.440;13.506;2023-02-26T17:17:52;6.63;;;1.35;;
2810;SDS011;1413;52.440;13.506;2023-02-26T17:20:21;5.68;;;1.38;;
2810;SDS011;1413;52.440;13.506;2023-02-26T17:22:49;6.53;;;1.20;;
2810;SDS011;1413;52.440;13.506;2023-02-26T17:25:17;9.73;;;1.42;;
2810;SDS011;1413;52.440;13.506;2023-02-26T17:27:46;6.78;;;1.33;;
2810;SDS011;1413;52.440;13.506;2023-02-26T17:30:17;7.57;;;1.33;;
2810;SDS011;1413;52.440;13.506;2023-02-26T17:32:45;6.78;;;1.10;;
2810;SDS011;1413;52.440;13.506;2023-02-26T17:35:12;6.75;;;1.20;;
2810;SDS011;1413;52.440;13.506;2023-02-26T17:37:41;8.75;;;1.65;;
2810;SDS011;1413;52.440;13.506;2023-02-26T17:40:16;5.97;;;1.25;;
2810;SDS011;1413;52.440;13.506;2023-02-26T17:42:44;5.00;;;1.20;;
2810;SDS011;1413;52.440;13.506;2023-02-26T17:45:12;5.95;;;1.23;;
2810;SDS011;1413;52.440;13.506;2023-02-26T17:47:42;6.90;;;1.30;;
2810;SDS011;1413;52.440;13.506;2023-02-26T17:50:19;6.40;;;1.30;;
2810;SDS011;1413;52.440;13.506;2023-02-26T17:52:50;6.22;;;1.35;;
2810;SDS011;1413;52.440;13.506;2023-02-26T17:55:17;7.07;;;1.58;;
2810;SDS011;1413;52.440;13.506;2023-02-26T17:57:45;6.38;;;1.65;;
2810;SDS011;1413;52.440;13.506;2023-02-26T18:00:13;5.93;;;1.30;;
2810;SDS011;1413;52.440;13.506;2023-02-26T18:02:42;9.15;;;1.60;;
2810;SDS011;1413;52.440;13.506;2023-02-26T18:05:10;4.63;;;1.40;;
2810;SDS011;1413;52.440;13.506;2023-02-26T18:07:38;6.10;;;1.27;;
2810;SDS011;1413;52.440;13.506;2023-02-26T18:10:06;5.18;;;1.48;;
2810;SDS011;1413;52.440;13.506;2023-02-26T18:13:48;3.53;;;0.90;;
2810;SDS011;1413;52.440;13.506;2023-02-26T18:16:17;4.13;;;1.05;;
2810;SDS011;1413;52.440;13.506;2023-02-26T18:18:45;4.88;;;1.40;;
2810;SDS011;1413;52.440;13.506;2023-02-26T18:21:13;3.95;;;1.30;;
2810;SDS011;1413;52.440;13.506;2023-02-26T18:23:40;3.97;;;1.60;;
2810;SDS011;1413;52.440;13.506;2023-02-26T18:26:08;4.25;;;1.50;;
2810;SDS011;1413;52.440;13.506;2023-02-26T18:28:36;4.63;;;1.50;;
2810;SDS011;1413;52.440;13.506;2023-02-26T18:31:05;5.45;;;1.58;;
2810;SDS011;1413;52.440;13.506;2023-02-26T18:33:34;4.20;;;1.35;;
2810;SDS011;1413;52.440;13.506;2023-02-26T18:36:04;5.00;;;1.50;;
2810;SDS011;1413;52.440;13.506;2023-02-26T18:38:31;4.53;;;1.50;;
2810;SDS011;1413;52.440;13.506;2023-02-26T18:40:59;5.95;;;1.33;;
2810;SDS011;1413;52.440;13.506;2023-02-26T18:43:27;4.00;;;1.20;;
2810;SDS011;1413;52.440;13.506;2023-02-26T18:45:55;4.63;;;1.23;;
2810;SDS011;1413;52.440;13.506;2023-02-26T18:48:28;4.57;;;1.42;;
2810;SDS011;1413;52.440;13.506;2023-02-26T18:50:55;5.03;;;1.38;;
2810;SDS011;1413;52.440;13.506;2023-02-26T18:53:24;4.60;;;1.23;;
2810;SDS011;1413;52.440;13.506;2023-02-26T18:55:53;5.45;;;1.55;;
2810;SDS011;1413;52.440;13.506;2023-02-26T18:58:22;3.33;;;1.35;;
2810;SDS011;1413;52.440;13.506;2023-02-26T19:00:49;4.32;;;1.40;;
2810;SDS011;1413;52.440;13.506;2023-02-26T19:03:17;7.05;;;1.23;;
2810;SDS011;1413;52.440;13.506;2023-02-26T19:05:46;4.47;;;1.45;;
2810;SDS011;1413;52.440;13.506;2023-02-26T19:08:21;5.18;;;1.17;;
2810;SDS011;1413;52.440;13.506;2023-02-26T19:10:48;4.18;;;1.20;;
2810;SDS011;1413;52.440;13.506;2023-02-26T19:13:16;4.82;;;1.35;;
2810;SDS011;1413;52.440;13.506;2023-02-26T19:15:43;5.00;;;1.30;;
2810;SDS011;1413;52.440;13.506;2023-02-26T19:18:11;3.47;;;1.15;;
2810;SDS011;1413;52.440;13.506;2023-02-26T19:20:38;5.15;;;1.20;;
2810;SDS011;1413;52.440;13.506;2023-02-26T19:23:08;3.20;;;1.17;;
2810;SDS011;1413;52.440;13.506;2023-02-26T19:25:35;5.53;;;1.13;;
2810;SDS011;1413;52.440;13.506;2023-02-26T19:28:04;3.47;;;1.02;;
2810;SDS011;1413;52.440;13.506;2023-02-26T19:30:32;3.85;;;1.10;;
2810;SDS011;1413;52.440;13.506;2023-02-26T19:33:00;3.30;;;0.82;;
2810;SDS011;1413;52.440;13.506;2023-02-26T19:35:28;3.55;;;1.00;;
2810;SDS011;1413;52.440;13.506;2023-02-26T19:37:56;2.97;;;0.90;;
2810;SDS011;1413;52.440;13.506;2023-02-26T19:40:25;3.80;;;1.17;;
2810;SDS011;1413;52.440;13.506;2023-02-26T19:42:53;3.05;;;1.00;;
2810;SDS011;1413;52.440;13.506;2023-02-26T19:45:21;4.90;;;1.10;;
2810;SDS011;1413;52.440;13.506;2023-02-26T19:47:48;3.63;;;1.40;;
2810;SDS011;1413;52.440;13.506;2023-02-26T19:50:16;3.22;;;0.90;;
2810;SDS011;1413;52.440;13.506;2023-02-26T19:52:44;5.45;;;1.23;;
2810;SDS011;1413;52.440;13.506;2023-02-26T19:55:12;2.78;;;0.93;;
2810;SDS011;1413;52.440;13.506;2023-02-26T19:57:41;4.75;;;1.10;;
2810;SDS011;1413;52.440;13.506;2023-02-26T20:00:10;4.28;;;1.25;;
2810;SDS011;1413;52.440;13.506;2023-02-26T20:02:38;3.95;;;1.15;;
2810;SDS011;1413;52.440;13.506;2023-02-26T20:05:06;4.28;;;1.33;;
2810;SDS011;1413;52.440;13.506;2023-02-26T20:07:36;3.67;;;0.98;;
2810;SDS011;1413;52.440;13.506;2023-02-26T20:10:04;3.72;;;1.17;;
2810;SDS011;1413;52.440;13.506;2023-02-26T20:12:32;3.85;;;1.15;;
2810;SDS011;1413;52.440;13.506;2023-02-26T20:15:01;3.03;;;1.08;;
2810;SDS011;1413;52.440;13.506;2023-02-26T20:17:28;3.17;;;1.10;;
2810;SDS011;1413;52.440;13.506;2023-02-26T20:19:56;4.88;;;1.23;;
2810;SDS011;1413;52.440;13.506;2023-02-26T20:22:23;3.50;;;1.30;;
2810;SDS011;1413;52.440;13.506;2023-02-26T20:24:51;5.35;;;1.60;;
2810;SDS011;1413;52.440;13.506;2023-02-26T20:27:18;4.93;;;1.70;;
2810;SDS011;1413;52.440;13.506;2023-02-26T20:29:46;4.72;;;1.60;;
2810;SDS011;1413;52.440;13.506;2023-02-26T20:32:17;4.60;;;1.40;;
2810;SDS011;1413;52.440;13.506;2023-02-26T20:34:45;4.72;;;1.27;;
2810;SDS011;1413;52.440;13.506;2023-02-26T20:37:12;3.80;;;1.35;;
2810;SDS011;1413;52.440;13.506;2023-02-26T20:39:40;4.55;;;1.55;;
2810;SDS011;1413;52.440;13.506;2023-02-26T20:42:08;3.45;;;1.17;;
2810;SDS011;1413;52.440;13.506;2023-02-26T20:44:35;3.50;;;1.33;;
2810;SDS011;1413;52.440;13.506;2023-02-26T20:47:03;4.50;;;1.30;;
2810;SDS011;1413;52.440;13.506;2023-02-26T20:49:32;4.40;;;1.30;;
2810;SDS011;1413;52.440;13.506;2023-02-26T20:51:59;3.42;;;1.23;;
2810;SDS011;1413;52.440;13.506;2023-02-26T20:54:27;4.18;;;1.55;;
2810;SDS011;1413;52.440;13.506;2023-02-26T20:56:54;8.07;;;1.70;;
2810;SDS011;1413;52.440;13.506;2023-02-26T20:59:22;3.78;;;1.42;;
2810;SDS011;1413;52.440;13.506;2023-02-26T21:01:50;5.25;;;1.45;;
2810;SDS011;1413;52.440;13.506;2023-02-26T21:04:19;5.75;;;1.42;;
2810;SDS011;1413;52.440;13.506;2023-02-26T21:06:48;3.45;;;1.10;;
2810;SDS011;1413;52.440;13.506;2023-02-26T21:09:15;2.95;;;1.13;;
2810;SDS011;1413;52.440;13.506;2023-02-26T21:11:43;4.05;;;1.27;;
2810;SDS011;1413;52.440;13.506;2023-02-26T21:14:10;5.35;;;1.58;;
2810;SDS011;1413;52.440;13.506;2023-02-26T21:16:38;5.18;;;1.23;;
2810;SDS011;1413;52.440;13.506;2023-02-26T21:19:06;9.13;;;2.47;;
2810;SDS011;1413;52.440;13.506;2023-02-26T21:21:34;7.10;;;2.17;;
2810;SDS011;1413;52.440;13.506;2023-02-26T21:24:03;8.15;;;2.03;;
2810;SDS011;1413;52.440;13.506;2023-02-26T21:26:31;6.65;;;1.40;;
2810;SDS011;1413;52.440;13.506;2023-02-26T21:29:00;3.75;;;1.38;;
2810;SDS011;1413;52.440;13.506;2023-02-26T21:31:30;5.38;;;1.80;;
2810;SDS011;1413;52.440;13.506;2023-02-26T21:33:57;5.35;;;1.75;;
2810;SDS011;1413;52.440;13.506;2023-02-26T21:39:11;5.30;;;1.83;;
2810;SDS011;1413;52.440;13.506;2023-02-26T21:41:38;4.78;;;1.88;;
2810;SDS011;1413;52.440;13.506;2023-02-26T21:44:06;3.90;;;1.58;;
2810;SDS011;1413;52.440;13.506;2023-02-26T21:46:33;6.32;;;1.98;;
2810;SDS011;1413;52.440;13.506;2023-02-26T21:49:01;6.30;;;1.85;;
2810;SDS011;1413;52.440;13.506;2023-02-26T21:51:28;5.55;;;1.75;;
2810;SDS011;1413;52.440;13.506;2023-02-26T21:53:56;5.45;;;1.85;;
2810;SDS011;1413;52.440;13.506;2023-02-26T21:56:25;5.22;;;1.83;;
2810;SDS011;1413;52.440;13.506;2023-02-26T21:58:52;6.75;;;2.08;;
2810;SDS011;1413;52.440;13.506;2023-02-26T22:01:20;7.90;;;3.42;;
2810;SDS011;1413;52.440;13.506;2023-02-26T22:03:48;7.47;;;2.30;;
2810;SDS011;1413;52.440;13.506;2023-02-26T22:06:16;7.13;;;2.70;;
2810;SDS011;1413;52.440;13.506;2023-02-26T22:08:43;7.65;;;2.42;;
2810;SDS011;1413;52.440;13.506;2023-02-26T22:11:11;4.75;;;1.65;;
2810;SDS011;1413;52.440;13.506;2023-02-26T22:13:40;5.68;;;2.35;;
2810;SDS011;1413;52.440;13.506;2023-02-26T22:16:08;5.97;;;2.40;;
2810;SDS011;1413;52.440;13.506;2023-02-26T22:18:35;7.00;;;2.53;;
2810;SDS011;1413;52.440;13.506;2023-02-26T22:21:03;7.28;;;2.60;;
2810;SDS011;1413;52.440;13.506;2023-02-26T22:23:31;8.23;;;2.78;;
2810;SDS011;1413;52.440;13.506;2023-02-26T22:25:58;6.78;;;2.40;;
2810;SDS011;1413;52.440;13.506;2023-02-26T22:28:26;7.50;;;2.17;;
2810;SDS011;1413;52.440;13.506;2023-02-26T22:30:55;7.63;;;2.78;;
2810;SDS011;1413;52.440;13.506;2023-02-26T22:33:23;7.18;;;2.90;;
2810;SDS011;1413;52.440;13.506;2023-02-26T22:35:53;7.60;;;2.92;;
2810;SDS011;1413;52.440;13.506;2023-02-26T22:38:21;11.18;;;3.17;;
2810;SDS011;1413;52.440;13.506;2023-02-26T22:40:51;7.88;;;2.58;;
2810;SDS011;1413;52.440;13.506;2023-02-26T22:43:19;7.63;;;2.67;;
2810;SDS011;1413;52.440;13.506;2023-02-26T22:45:46;7.68;;;2.92;;
2810;SDS011;1413;52.440;13.506;2023-02-26T22:48:16;6.10;;;2.75;;
2810;SDS011;1413;52.440;13.506;2023-02-26T22:50:43;5.47;;;2.22;;
2810;SDS011;1413;52.440;13.506;2023-02-26T22:53:11;5.25;;;2.38;;
2810;SDS011;1413;52.440;13.506;2023-02-26T22:55:38;8.23;;;2.72;;
2810;SDS011;1413;52.440;13.506;2023-02-26T22:58:06;5.68;;;2.42;;
2810;SDS011;1413;52.440;13.506;2023-02-26T23:00:33;6.95;;;2.22;;
2810;SDS011;1413;52.440;13.506;2023-02-26T23:03:01;5.78;;;2.28;;
2810;SDS011;1413;52.440;13.506;2023-02-26T23:05:30;7.88;;;2.63;;
2810;SDS011;1413;52.440;13.506;2023-02-26T23:07:57;6.78;;;2.17;;
2810;SDS011;1413;52.440;13.506;2023-02-26T23:10:25;7.05;;;2.45;;
2810;SDS011;1413;52.440;13.506;2023-02-26T23:12:52;6.93;;;2.63;;
2810;SDS011;1413;52.440;13.506;2023-02-26T23:15:21;8.45;;;2.58;;
2810;SDS011;1413;52.440;13.506;2023-02-26T23:17:49;7.72;;;2.78;;
2810;SDS011;1413;52.440;13.506;2023-02-26T23:20:16;10.27;;;3.22;;
2810;SDS011;1413;52.440;13.506;2023-02-26T23:22:45;8.35;;;3.22;;
2810;SDS011;1413;52.440;13.506;2023-02-26T23:25:12;10.30;;;3.30;;
2810;SDS011;1413;52.440;13.506;2023-02-26T23:27:40;7.80;;;3.30;;
2810;SDS011;1413;52.440;13.506;2023-02-26T23:30:08;10.85;;;4.10;;
2810;SDS011;1413;52.440;13.506;2023-02-26T23:32:36;12.00;;;3.92;;
2810;SDS011;1413;52.440;13.506;2023-02-26T23:35:04;12.85;;;4.25;;
2810;SDS011;1413;52.440;13.506;2023-02-26T23:37:31;10.55;;;3.92;;
2810;SDS011;1413;52.440;13.506;2023-02-26T23:40:00;9.98;;;3.38;;
2810;SDS011;1413;52.440;13.506;2023-02-26T23:42:29;8.60;;;3.28;;
2810;SDS011;1413;52.440;13.506;2023-02-26T23:44:56;8.82;;;3.63;;
2810;SDS011;1413;52.440;13.506;2023-02-26T23:47:24;7.95;;;3.00;;
2810;SDS011;1413;52.440;13.506;2023-02-26T23:49:51;8.13;;;2.78;;
2810;SDS011;1413;52.440;13.506;2023-02-26T23:52:19;11.15;;;3.55;;
2810;SDS011;1413;52.440;13.506;2023-02-26T23:54:46;10.52;;;3.08;;
2810;SDS011;1413;52.440;13.506;2023-02-26T23:57:15;6.80;;;2.75;;
2810;SDS011;1413;52.440;13.506;2023-02-26T23:59:43;7.47;;;2.55;;
